Time;durP1;ratioP1;P1;durP2;ratioP2;P2;SDS_P1;SDS_P2;PMS_P1;PMS_P2;Temp;Humidity;BMP_temperature;BMP_pressure;BME280_temperature;BME280_humidity;BME280_pressure;Samples;Min_cycle;Max_cycle;Signal;HPM_P1;HPM_P2
2022/03/08 00:08:05;;;;;;;13.40;6.80;;;;;;;-3.22;72.33;100120.89;430981;1271;140813;-63
2022/03/08 00:18:09;;;;;;;;;;;;;;;-3.30;72.75;100118.83;430741;1273;142458;-63
2022/03/08 00:28:15;;;;;;;11.50;6.60;;;;;;;-3.43;73.06;100116.58;433028;1271;128691;-61
2022/03/08 00:38:21;;;;;;;14.20;8.70;;;;;;;-3.59;73.19;100120.14;429840;1273;141916;-62
2022/03/08 00:48:27;;;;;;;14.70;7.70;;;;;;;-3.68;73.63;100128.67;429707;1271;142056;-62
2022/03/08 00:58:36;;;;;;;11.50;7.40;;;;;;;-3.77;74.07;100141.30;432869;1271;143061;-61
2022/03/08 01:08:42;;;;;;;15.90;8.70;;;;;;;-3.78;74.35;100150.19;430212;1273;142128;-61
2022/03/08 01:18:48;;;;;;;16.10;7.80;;;;;;;-3.85;74.59;100125.36;429696;1271;142371;-61
2022/03/08 01:28:55;;;;;;;13.10;7.70;;;;;;;-3.91;75.06;100110.11;431974;1273;142312;-62
2022/03/08 01:39:02;;;;;;;11.00;6.40;;;;;;;-3.93;75.12;100111.83;431378;1270;141524;-61
2022/03/08 01:49:08;;;;;;;14.60;8.50;;;;;;;-3.97;75.14;100127.55;430963;1272;142669;-63
2022/03/08 01:59:14;;;;;;;9.40;6.70;;;;;;;-3.85;75.66;100125.02;431920;1271;142124;-62
2022/03/08 02:09:20;;;;;;;16.90;8.40;;;;;;;-3.60;75.58;100123.22;433750;1273;142246;-62
2022/03/08 02:19:25;;;;;;;13.70;8.20;;;;;;;-3.35;75.62;100113.16;429799;1270;141205;-61
2022/03/08 02:29:31;;;;;;;12.60;7.10;;;;;;;-3.09;75.40;100107.20;431074;1270;142624;-63
2022/03/08 02:39:38;;;;;;;10.40;7.10;;;;;;;-2.83;75.09;100113.35;431633;1271;142979;-61
2022/03/08 02:49:42;;;;;;;;;;;;;;;-2.61;74.66;100117.96;432139;1272;142130;-61
2022/03/08 02:59:47;;;;;;;10.90;6.40;;;;;;;-2.51;74.27;100118.80;430989;1271;127839;-62
2022/03/08 03:09:53;;;;;;;10.50;6.80;;;;;;;-2.54;74.15;100126.35;430437;1271;144485;-61
2022/03/08 03:19:59;;;;;;;11.30;5.90;;;;;;;-2.51;74.16;100129.09;431479;1271;141579;-62
2022/03/08 03:30:09;;;;;;;11.40;6.50;;;;;;;-2.34;74.09;100137.81;431494;1271;141049;-63
2022/03/08 03:40:16;;;;;;;6.90;5.00;;;;;;;-2.13;73.84;100145.98;431735;1273;141861;-62
2022/03/08 03:50:22;;;;;;;9.00;5.20;;;;;;;-1.97;73.48;100147.81;432092;1271;141812;-62
2022/03/08 04:00:27;;;;;;;9.60;4.70;;;;;;;-1.90;73.47;100155.35;430428;1271;144494;-63
2022/03/08 04:10:33;;;;;;;8.90;5.50;;;;;;;-1.92;73.22;100162.04;431182;1271;141397;-62
2022/03/08 04:20:39;;;;;;;7.70;5.90;;;;;;;-1.88;73.22;100172.67;431755;1270;140998;-62
2022/03/08 04:30:45;;;;;;;9.20;5.40;;;;;;;-1.76;73.20;100176.06;430265;1270;141786;-62
2022/03/08 04:40:51;;;;;;;8.80;6.00;;;;;;;-1.69;73.24;100171.57;430932;1270;143137;-62
2022/03/08 04:50:57;;;;;;;7.40;5.60;;;;;;;-1.66;73.19;100164.00;430843;1269;141898;-64
2022/03/08 05:01:03;;;;;;;11.50;6.40;;;;;;;-1.70;73.27;100173.46;431824;1270;142094;-62
2022/03/08 05:11:08;;;;;;;;;;;;;;;-1.68;73.39;100181.86;433434;1270;141799;-63
2022/03/08 05:21:13;;;;;;;15.30;9.30;;;;;;;-1.66;73.36;100181.52;430681;1270;128590;-62
2022/03/08 05:31:19;;;;;;;15.20;8.20;;;;;;;-1.58;73.45;100183.71;431497;1270;141716;-61
2022/03/08 05:41:25;;;;;;;11.10;8.30;;;;;;;-1.53;73.36;100198.96;433557;1270;141342;-61
2022/03/08 05:51:31;;;;;;;14.90;10.10;;;;;;;-1.55;73.47;100193.48;430975;1270;186200;-63
2022/03/08 06:01:37;;;;;;;11.90;8.20;;;;;;;-1.58;73.58;100217.71;430484;1270;142216;-62
2022/03/08 06:11:43;;;;;;;15.00;9.30;;;;;;;-1.56;73.62;100223.54;431425;1270;143647;-62
2022/03/08 06:21:49;;;;;;;12.90;9.00;;;;;;;-1.49;73.49;100221.11;430634;1270;144881;-62
2022/03/08 06:31:56;;;;;;;13.50;9.40;;;;;;;-1.36;73.46;100218.98;430624;1271;142740;-61
2022/03/08 06:42:02;;;;;;;16.30;11.90;;;;;;;-1.18;73.30;100229.89;429908;1270;142130;-62
2022/03/08 06:52:09;;;;;;;19.40;14.00;;;;;;;-1.05;73.14;100243.05;435027;1270;141708;-64
2022/03/08 07:02:15;;;;;;;18.20;14.10;;;;;;;-0.87;73.03;100253.26;430976;1270;142987;-67
2022/03/08 07:12:21;;;;;;;19.40;14.30;;;;;;;-0.67;72.74;100245.90;430685;1270;143058;-67
2022/03/08 07:22:27;;;;;;;18.40;10.70;;;;;;;-0.26;72.38;100241.95;431351;1273;143674;-67
2022/03/08 07:32:33;;;;;;;17.10;13.00;;;;;;;0.22;71.75;100247.52;431350;1270;142438;-61
2022/03/08 07:42:39;;;;;;;21.90;16.60;;;;;;;0.23;71.32;100252.85;431107;1273;146492;-68
2022/03/08 07:52:45;;;;;;;20.30;15.50;;;;;;;0.04;70.98;100257.70;430770;1271;143323;-68
2022/03/08 08:02:51;;;;;;;16.20;12.20;;;;;;;-0.02;70.88;100259.65;430358;1271;142443;-67
2022/03/08 08:12:57;;;;;;;19.10;11.10;;;;;;;0.14;70.84;100268.09;430302;1270;142471;-68
2022/03/08 08:23:03;;;;;;;17.70;11.50;;;;;;;0.26;70.51;100276.91;431319;1270;142244;-65
2022/03/08 08:33:10;;;;;;;19.20;10.50;;;;;;;0.50;70.32;100294.93;430752;1271;307012;-64
2022/03/08 08:43:16;;;;;;;18.50;11.40;;;;;;;0.77;69.40;100299.27;432586;1271;143206;-65
2022/03/08 08:53:23;;;;;;;15.40;10.10;;;;;;;0.93;69.24;100294.92;431973;1271;141951;-67
2022/03/08 09:03:28;;;;;;;19.50;12.10;;;;;;;1.55;68.51;100296.30;431516;1270;142289;-65
2022/03/08 09:13:35;;;;;;;11.70;9.80;;;;;;;2.25;67.73;100293.40;430722;1270;141908;-62
2022/03/08 09:23:42;;;;;;;16.10;10.40;;;;;;;2.42;66.46;100288.10;432163;1270;143971;-70
2022/03/08 09:33:47;;;;;;;;;;;;;;;2.19;66.34;100275.05;430780;1270;142043;-62
2022/03/08 09:43:53;;;;;;;12.50;9.60;;;;;;;2.69;65.81;100259.04;431694;1270;127458;-62
2022/03/08 09:54:00;;;;;;;14.90;10.00;;;;;;;3.11;65.17;100247.59;432066;1270;141681;-68
2022/03/08 10:04:07;;;;;;;12.50;8.00;;;;;;;3.59;64.01;100235.23;430635;1271;140728;-80
2022/03/08 10:14:38;;;;;;;13.70;8.60;;;;;;;3.88;62.73;100220.12;432216;1270;140813;-66
2022/03/08 10:24:44;;;;;;;13.60;5.70;;;;;;;4.59;62.48;100185.92;431669;1270;141711;-67
2022/03/08 10:34:54;;;;;;;8.90;4.50;;;;;;;4.69;60.91;100171.42;432208;1270;141766;-68
2022/03/08 10:45:07;;;;;;;7.40;4.10;;;;;;;4.50;60.27;100173.20;430894;1271;141339;-65
2022/03/08 10:55:18;;;;;;;7.30;4.00;;;;;;;3.91;59.92;100160.29;432377;1271;140822;-65
2022/03/08 11:05:26;;;;;;;5.30;3.40;;;;;;;3.62;60.13;100148.58;431426;1271;142080;-72
2022/03/08 11:15:34;;;;;;;6.20;3.70;;;;;;;3.52;59.47;100145.20;432328;1270;143694;-72
2022/03/08 11:25:43;;;;;;;7.30;3.40;;;;;;;3.28;59.19;100145.80;434046;1270;140695;-67
2022/03/08 11:36:08;;;;;;;4.70;3.00;;;;;;;3.20;58.91;100139.43;432702;1271;140431;-65
2022/03/08 11:46:16;;;;;;;5.20;2.50;;;;;;;3.24;58.50;100138.14;432585;1271;140917;-65
2022/03/08 11:56:23;;;;;;;4.60;2.80;;;;;;;3.30;58.52;100141.79;431357;1270;140908;-65
2022/03/08 12:06:35;;;;;;;3.50;2.60;;;;;;;3.65;58.32;100138.12;430972;1271;160989;-65
2022/03/08 12:16:43;;;;;;;3.40;3.00;;;;;;;4.14;57.69;100132.09;431141;1271;142010;-68
2022/03/08 12:26:58;;;;;;;7.80;2.80;;;;;;;4.64;56.70;100129.75;431661;1270;140018;-62
2022/03/08 12:37:26;;;;;;;8.50;2.80;;;;;;;5.06;55.34;100135.92;432698;1270;140701;-63
2022/03/08 12:47:39;;;;;;;8.50;2.90;;;;;;;5.64;54.26;100144.77;433528;1270;141225;-63
2022/03/08 12:57:51;;;;;;;7.80;4.40;;;;;;;5.98;53.24;100139.08;430906;1271;143943;-63
2022/03/08 13:07:59;;;;;;;4.80;3.70;;;;;;;6.04;52.62;100123.05;431042;1271;141458;-62
2022/03/08 13:18:06;;;;;;;6.40;3.10;;;;;;;5.97;51.91;100134.91;431213;1272;140806;-61
2022/03/08 13:28:15;;;;;;;4.80;3.30;;;;;;;5.87;51.44;100141.71;430181;1273;141368;-66
2022/03/08 13:38:27;;;;;;;6.70;3.60;;;;;;;5.86;51.19;100145.39;430596;1271;140390;-69
2022/03/08 13:48:38;;;;;;;11.40;3.80;;;;;;;5.66;50.14;100147.14;431263;1270;140784;-65
2022/03/08 13:58:51;;;;;;;7.20;4.40;;;;;;;5.59;50.59;100149.80;432461;1270;141430;-60
2022/03/08 14:08:58;;;;;;;6.70;3.20;;;;;;;5.56;50.83;100159.27;431041;1270;140295;-62
2022/03/08 14:19:05;;;;;;;8.50;3.90;;;;;;;5.52;50.75;100148.48;430474;1270;140231;-72
2022/03/08 14:29:15;;;;;;;7.00;3.50;;;;;;;5.15;51.17;100143.93;430937;1270;140973;-66
2022/03/08 14:39:33;;;;;;;12.60;4.50;;;;;;;4.57;51.74;100142.28;432100;1270;144592;-64
2022/03/08 14:49:43;;;;;;;7.10;3.90;;;;;;;4.37;52.74;100145.47;433287;1271;140750;-71
2022/03/08 14:59:51;;;;;;;18.90;6.20;;;;;;;4.36;53.30;100151.91;433755;1271;142030;-67
2022/03/08 15:09:57;;;;;;;7.80;4.40;;;;;;;4.49;53.45;100146.17;430112;1271;141382;-63
2022/03/08 15:20:04;;;;;;;10.20;4.20;;;;;;;4.48;53.86;100146.90;430651;1271;140173;-68
2022/03/08 15:30:12;;;;;;;5.60;3.20;;;;;;;4.42;53.62;100148.98;430782;1271;163149;-62
2022/03/08 15:40:18;;;;;;;7.60;4.10;;;;;;;4.26;53.93;100154.12;435714;1271;140692;-75
2022/03/08 15:50:23;;;;;;;9.50;4.10;;;;;;;4.12;54.06;100155.72;432909;1271;140098;-75
2022/03/08 16:00:31;;;;;;;7.40;4.30;;;;;;;3.97;54.59;100157.70;432062;1270;141287;-74
2022/03/08 16:10:37;;;;;;;11.30;6.20;;;;;;;3.81;54.91;100164.54;433258;1271;140760;-75
2022/03/08 16:20:44;;;;;;;7.20;5.20;;;;;;;3.67;55.43;100170.78;433321;1271;141813;-74
2022/03/08 16:30:50;;;;;;;10.60;5.20;;;;;;;3.59;56.04;100171.02;431621;1271;141137;-75
2022/03/08 16:40:56;;;;;;;10.20;5.20;;;;;;;3.51;56.45;100173.10;433755;1271;141090;-75
2022/03/08 16:51:02;;;;;;;8.10;4.80;;;;;;;3.43;56.98;100172.61;434106;1271;141749;-73
2022/03/08 17:01:08;;;;;;;9.00;5.20;;;;;;;3.26;56.84;100176.48;435192;1271;141178;-74
2022/03/08 17:11:14;;;;;;;13.60;6.20;;;;;;;3.02;57.28;100180.51;447354;1270;141210;-75
2022/03/08 17:21:20;;;;;;;10.80;6.80;;;;;;;2.84;57.88;100178.31;432360;1271;141101;-76
2022/03/08 17:31:26;;;;;;;12.00;6.40;;;;;;;2.72;58.04;100167.17;431025;1271;141475;-76
2022/03/08 17:41:32;;;;;;;17.90;7.50;;;;;;;2.50;58.55;100162.65;431154;1271;141770;-75
2022/03/08 17:51:38;;;;;;;17.10;9.40;;;;;;;2.14;59.06;100156.29;433961;1271;141665;-74
2022/03/08 18:01:44;;;;;;;17.20;10.00;;;;;;;1.78;59.64;100155.95;433164;1271;141433;-74
2022/03/08 18:11:50;;;;;;;13.60;7.40;;;;;;;1.47;60.35;100147.00;430584;1271;141338;-76
2022/03/08 18:22:04;;;;;;;16.90;8.80;;;;;;;1.19;61.05;100150.23;434698;1271;179947;-77
2022/03/08 18:32:16;;;;;;;20.40;11.30;;;;;;;0.90;61.65;100149.83;434255;1271;145543;-75
2022/03/08 18:42:22;;;;;;;25.80;12.80;;;;;;;0.58;62.05;100150.96;433273;1271;140576;-77
2022/03/08 18:52:28;;;;;;;26.00;14.10;;;;;;;0.35;62.60;100149.02;432782;1271;146779;-75
2022/03/08 19:02:34;;;;;;;22.80;14.30;;;;;;;0.22;63.22;100146.61;432110;1271;143081;-74
2022/03/08 19:12:41;;;;;;;37.20;19.80;;;;;;;0.20;63.36;100140.96;431680;1271;142118;-77
2022/03/08 19:22:47;;;;;;;33.70;18.30;;;;;;;0.21;63.68;100146.63;433337;1271;140992;-75
2022/03/08 19:32:53;;;;;;;43.00;22.60;;;;;;;0.11;63.92;100156.72;432419;1270;140383;-74
2022/03/08 19:42:59;;;;;;;43.40;21.70;;;;;;;-0.01;64.14;100168.58;432429;1271;140915;-73
2022/03/08 19:53:05;;;;;;;47.70;22.40;;;;;;;-0.24;64.34;100163.83;432047;1271;141079;-74
2022/03/08 20:03:11;;;;;;;29.80;15.70;;;;;;;-0.52;65.06;100162.89;431830;1270;142119;-73
2022/03/08 20:13:19;;;;;;;29.40;17.80;;;;;;;-0.65;65.91;100177.80;432270;1271;140834;-76
2022/03/08 20:23:25;;;;;;;30.20;18.60;;;;;;;-0.68;66.11;100177.14;432055;1271;140871;-76
2022/03/08 20:33:31;;;;;;;39.80;20.00;;;;;;;-0.50;66.67;100192.45;432354;1270;677243;-71
2022/03/08 20:43:42;;;;;;;34.30;17.80;;;;;;;-0.34;66.43;100206.08;432427;1271;143820;-65
2022/03/08 20:53:51;;;;;;;40.00;19.30;;;;;;;-0.22;66.18;100216.64;432499;1271;141638;-67
2022/03/08 21:04:02;;;;;;;34.70;18.50;;;;;;;-0.06;66.33;100215.80;431688;1271;141092;-65
2022/03/08 21:14:08;;;;;;;48.60;22.30;;;;;;;0.05;66.18;100213.77;433968;1270;141608;-65
2022/03/08 21:24:14;;;;;;;38.20;19.50;;;;;;;0.18;66.50;100213.82;429671;1271;142105;-64
2022/03/08 21:34:20;;;;;;;49.30;25.50;;;;;;;0.35;66.43;100213.11;430800;1271;141650;-61
2022/03/08 21:44:26;;;;;;;46.70;26.10;;;;;;;0.49;66.30;100204.14;432374;1271;140897;-62
2022/03/08 21:54:33;;;;;;;59.70;33.30;;;;;;;0.63;66.30;100199.65;431105;1271;142324;-64
2022/03/08 22:04:39;;;;;;;128.80;65.90;;;;;;;0.67;66.31;100203.56;430671;1271;143674;-62
2022/03/08 22:14:45;;;;;;;72.40;38.80;;;;;;;0.65;66.54;100206.17;430988;1271;147057;-63
2022/03/08 22:24:51;;;;;;;90.90;44.90;;;;;;;0.60;66.62;100200.39;431745;1270;141128;-64
2022/03/08 22:34:57;;;;;;;79.00;40.50;;;;;;;0.52;66.55;100199.11;430299;1273;142371;-62
2022/03/08 22:45:03;;;;;;;50.10;29.60;;;;;;;0.44;66.65;100198.53;431380;1270;141192;-62
2022/03/08 22:55:11;;;;;;;42.50;26.10;;;;;;;0.46;67.06;100197.13;430998;1270;141883;-62
2022/03/08 23:05:16;;;;;;;53.10;31.50;;;;;;;0.56;66.74;100184.76;432420;1271;143780;-62
2022/03/08 23:15:23;;;;;;;52.90;30.10;;;;;;;0.63;67.24;100174.84;431275;1271;145719;-65
2022/03/08 23:25:29;;;;;;;62.90;36.10;;;;;;;0.66;67.08;100168.60;431028;1270;142477;-66
2022/03/08 23:35:35;;;;;;;68.50;35.80;;;;;;;0.63;67.41;100176.05;434659;1271;142863;-66
2022/03/08 23:45:41;;;;;;;60.60;33.40;;;;;;;0.62;67.60;100173.48;430683;1273;141409;-66
2022/03/08 23:55:47;;;;;;;46.50;27.90;;;;;;;0.62;67.47;100162.97;433112;1270;143308;-67
